< < Back
Terminal Aerodrome Forecast


Current Version              Previous Versions:   1  2  3  4  5  6  7  8  9  

Terminal Aerodrome Forecast

301
FTUS42 KFFC 302340
TAFPDK
TAF
KPDK 302340Z 3100/3124 32010KT P6SM FEW030 BKN050
     FM310200 01008KT P6SM FEW040 SCT100
     FM311000 06004KT P6SM SCT080 SCT250
     FM311500 03005KT P6SM FEW050
     FM312100 34008KT P6SM SCT060=

Latest METAR

673
SAUS70 KWBC 310300 RRE
MTRPDK
METAR KPDK 310253Z 36009G15KT 10SM CLR 29/23 A2998 RMK AO2 SLP128
T02890228 53015


USA.gov is the U.S. government's official web portal to all federal, state and local government web resources and services.